sensor_id;sensor_type;location;lat;lon;timestamp;P1;durP1;ratioP1;P2;durP2;ratioP2
24961;SDS011;12992;50.884;13.668;2023-04-07T00:01:48;5.63;;;3.78;;
24961;SDS011;12992;50.884;13.668;2023-04-07T00:04:14;6.80;;;3.72;;
24961;SDS011;12992;50.884;13.668;2023-04-07T00:06:40;5.82;;;3.53;;
24961;SDS011;12992;50.884;13.668;2023-04-07T00:09:07;8.55;;;3.88;;
24961;SDS011;12992;50.884;13.668;2023-04-07T00:11:32;4.93;;;3.47;;
24961;SDS011;12992;50.884;13.668;2023-04-07T00:13:58;5.80;;;3.42;;
24961;SDS011;12992;50.884;13.668;2023-04-07T00:16:23;4.43;;;3.50;;
24961;SDS011;12992;50.884;13.668;2023-04-07T00:18:48;5.38;;;3.53;;
24961;SDS011;12992;50.884;13.668;2023-04-07T00:21:14;4.80;;;3.28;;
24961;SDS011;12992;50.884;13.668;2023-04-07T00:23:39;4.63;;;3.50;;
24961;SDS011;12992;50.884;13.668;2023-04-07T00:26:04;4.55;;;3.53;;
24961;SDS011;12992;50.884;13.668;2023-04-07T00:28:30;5.32;;;3.28;;
24961;SDS011;12992;50.884;13.668;2023-04-07T00:30:55;4.38;;;3.28;;
24961;SDS011;12992;50.884;13.668;2023-04-07T00:33:20;5.18;;;3.58;;
24961;SDS011;12992;50.884;13.668;2023-04-07T00:35:47;6.35;;;3.17;;
24961;SDS011;12992;50.884;13.668;2023-04-07T00:38:12;3.63;;;3.20;;
24961;SDS011;12992;50.884;13.668;2023-04-07T00:40:37;4.50;;;3.08;;
24961;SDS011;12992;50.884;13.668;2023-04-07T00:43:03;3.75;;;2.90;;
24961;SDS011;12992;50.884;13.668;2023-04-07T00:45:28;4.40;;;3.25;;
24961;SDS011;12992;50.884;13.668;2023-04-07T00:47:54;6.32;;;3.40;;
24961;SDS011;12992;50.884;13.668;2023-04-07T00:50:21;5.88;;;3.20;;
24961;SDS011;12992;50.884;13.668;2023-04-07T00:52:47;4.20;;;3.15;;
24961;SDS011;12992;50.884;13.668;2023-04-07T00:55:12;6.10;;;4.00;;
24961;SDS011;12992;50.884;13.668;2023-04-07T00:57:38;4.20;;;3.22;;
24961;SDS011;12992;50.884;13.668;2023-04-07T01:00:04;4.80;;;3.38;;
24961;SDS011;12992;50.884;13.668;2023-04-07T01:02:36;3.72;;;3.22;;
24961;SDS011;12992;50.884;13.668;2023-04-07T01:05:25;4.63;;;3.00;;
24961;SDS011;12992;50.884;13.668;2023-04-07T01:10:41;4.93;;;3.05;;
24961;SDS011;12992;50.884;13.668;2023-04-07T01:16:21;3.75;;;3.08;;
24961;SDS011;12992;50.884;13.668;2023-04-07T01:18:53;5.18;;;3.45;;
24961;SDS011;12992;50.884;13.668;2023-04-07T01:21:20;4.78;;;3.10;;
24961;SDS011;12992;50.884;13.668;2023-04-07T01:26:36;5.15;;;3.30;;
24961;SDS011;12992;50.884;13.668;2023-04-07T01:29:06;6.22;;;3.05;;
24961;SDS011;12992;50.884;13.668;2023-04-07T01:31:39;5.43;;;3.67;;
24961;SDS011;12992;50.884;13.668;2023-04-07T01:34:05;4.13;;;2.88;;
24961;SDS011;12992;50.884;13.668;2023-04-07T01:36:35;5.43;;;3.25;;
24961;SDS011;12992;50.884;13.668;2023-04-07T01:39:00;4.63;;;3.30;;
24961;SDS011;12992;50.884;13.668;2023-04-07T01:41:26;6.97;;;3.50;;
24961;SDS011;12992;50.884;13.668;2023-04-07T01:43:52;5.65;;;3.30;;
24961;SDS011;12992;50.884;13.668;2023-04-07T01:46:19;4.95;;;3.08;;
24961;SDS011;12992;50.884;13.668;2023-04-07T01:48:45;5.50;;;3.28;;
24961;SDS011;12992;50.884;13.668;2023-04-07T01:51:12;7.30;;;3.63;;
24961;SDS011;12992;50.884;13.668;2023-04-07T01:53:42;6.85;;;3.30;;
24961;SDS011;12992;50.884;13.668;2023-04-07T01:56:09;5.07;;;3.50;;
24961;SDS011;12992;50.884;13.668;2023-04-07T01:58:36;7.28;;;3.28;;
24961;SDS011;12992;50.884;13.668;2023-04-07T02:01:03;5.53;;;3.42;;
24961;SDS011;12992;50.884;13.668;2023-04-07T02:06:22;4.90;;;3.47;;
24961;SDS011;12992;50.884;13.668;2023-04-07T02:08:53;6.78;;;3.40;;
24961;SDS011;12992;50.884;13.668;2023-04-07T02:11:22;5.57;;;3.63;;
24961;SDS011;12992;50.884;13.668;2023-04-07T02:13:53;4.25;;;3.22;;
24961;SDS011;12992;50.884;13.668;2023-04-07T02:16:20;5.32;;;3.30;;
24961;SDS011;12992;50.884;13.668;2023-04-07T02:18:46;5.18;;;3.20;;
24961;SDS011;12992;50.884;13.668;2023-04-07T02:21:14;4.82;;;3.53;;
24961;SDS011;12992;50.884;13.668;2023-04-07T02:23:42;4.30;;;2.95;;
24961;SDS011;12992;50.884;13.668;2023-04-07T02:26:08;7.30;;;2.88;;
24961;SDS011;12992;50.884;13.668;2023-04-07T02:28:33;4.93;;;3.00;;
24961;SDS011;12992;50.884;13.668;2023-04-07T02:30:59;4.88;;;3.08;;
24961;SDS011;12992;50.884;13.668;2023-04-07T02:33:25;5.38;;;3.10;;
24961;SDS011;12992;50.884;13.668;2023-04-07T02:35:50;5.13;;;3.67;;
24961;SDS011;12992;50.884;13.668;2023-04-07T02:38:15;5.53;;;3.22;;
24961;SDS011;12992;50.884;13.668;2023-04-07T02:40:40;5.20;;;3.15;;
24961;SDS011;12992;50.884;13.668;2023-04-07T02:43:06;4.15;;;2.72;;
24961;SDS011;12992;50.884;13.668;2023-04-07T02:45:31;7.68;;;4.00;;
24961;SDS011;12992;50.884;13.668;2023-04-07T02:47:56;4.97;;;3.00;;
24961;SDS011;12992;50.884;13.668;2023-04-07T02:50:22;6.57;;;3.35;;
24961;SDS011;12992;50.884;13.668;2023-04-07T02:52:47;6.00;;;3.17;;
24961;SDS011;12992;50.884;13.668;2023-04-07T02:55:13;5.43;;;3.05;;
24961;SDS011;12992;50.884;13.668;2023-04-07T02:57:39;4.82;;;3.17;;
24961;SDS011;12992;50.884;13.668;2023-04-07T03:00:10;6.07;;;3.33;;
24961;SDS011;12992;50.884;13.668;2023-04-07T03:02:58;4.47;;;3.20;;
24961;SDS011;12992;50.884;13.668;2023-04-07T03:05:25;4.93;;;3.35;;
24961;SDS011;12992;50.884;13.668;2023-04-07T03:07:50;3.90;;;2.90;;
24961;SDS011;12992;50.884;13.668;2023-04-07T03:10:16;5.72;;;3.35;;
24961;SDS011;12992;50.884;13.668;2023-04-07T03:12:42;8.18;;;3.90;;
24961;SDS011;12992;50.884;13.668;2023-04-07T03:15:07;7.20;;;3.42;;
24961;SDS011;12992;50.884;13.668;2023-04-07T03:17:34;5.85;;;3.38;;
24961;SDS011;12992;50.884;13.668;2023-04-07T03:19:59;6.38;;;3.55;;
24961;SDS011;12992;50.884;13.668;2023-04-07T03:22:25;5.30;;;3.63;;
24961;SDS011;12992;50.884;13.668;2023-04-07T03:24:52;6.63;;;3.50;;
24961;SDS011;12992;50.884;13.668;2023-04-07T03:27:20;6.32;;;3.58;;
24961;SDS011;12992;50.884;13.668;2023-04-07T03:29:47;4.90;;;3.33;;
24961;SDS011;12992;50.884;13.668;2023-04-07T03:32:15;4.55;;;3.42;;
24961;SDS011;12992;50.884;13.668;2023-04-07T03:34:41;6.50;;;3.72;;
24961;SDS011;12992;50.884;13.668;2023-04-07T03:37:06;7.55;;;3.42;;
24961;SDS011;12992;50.884;13.668;2023-04-07T03:39:34;5.10;;;3.35;;
24961;SDS011;12992;50.884;13.668;2023-04-07T03:42:03;6.00;;;3.13;;
24961;SDS011;12992;50.884;13.668;2023-04-07T03:44:31;4.65;;;3.30;;
24961;SDS011;12992;50.884;13.668;2023-04-07T03:46:57;6.65;;;3.60;;
24961;SDS011;12992;50.884;13.668;2023-04-07T03:49:23;6.43;;;3.28;;
24961;SDS011;12992;50.884;13.668;2023-04-07T03:51:49;5.60;;;3.83;;
24961;SDS011;12992;50.884;13.668;2023-04-07T03:54:16;4.95;;;3.22;;
24961;SDS011;12992;50.884;13.668;2023-04-07T03:56:43;5.30;;;3.42;;
24961;SDS011;12992;50.884;13.668;2023-04-07T03:59:08;7.25;;;3.63;;
24961;SDS011;12992;50.884;13.668;2023-04-07T04:01:39;4.72;;;3.38;;
24961;SDS011;12992;50.884;13.668;2023-04-07T04:04:10;6.45;;;3.72;;
24961;SDS011;12992;50.884;13.668;2023-04-07T04:06:35;6.18;;;4.13;;
24961;SDS011;12992;50.884;13.668;2023-04-07T04:09:12;6.43;;;3.80;;
24961;SDS011;12992;50.884;13.668;2023-04-07T04:11:43;5.50;;;3.97;;
24961;SDS011;12992;50.884;13.668;2023-04-07T04:14:08;7.97;;;3.92;;
24961;SDS011;12992;50.884;13.668;2023-04-07T04:16:36;7.50;;;3.95;;
24961;SDS011;12992;50.884;13.668;2023-04-07T04:19:07;6.82;;;3.60;;
24961;SDS011;12992;50.884;13.668;2023-04-07T04:21:33;6.07;;;3.88;;
24961;SDS011;12992;50.884;13.668;2023-04-07T04:23:58;7.10;;;4.13;;
24961;SDS011;12992;50.884;13.668;2023-04-07T04:26:29;7.25;;;4.20;;
24961;SDS011;12992;50.884;13.668;2023-04-07T04:28:59;8.57;;;3.88;;
24961;SDS011;12992;50.884;13.668;2023-04-07T04:31:24;6.13;;;3.75;;
24961;SDS011;12992;50.884;13.668;2023-04-07T04:33:50;6.00;;;3.88;;
24961;SDS011;12992;50.884;13.668;2023-04-07T04:36:16;8.05;;;3.95;;
24961;SDS011;12992;50.884;13.668;2023-04-07T04:38:42;6.82;;;3.65;;
24961;SDS011;12992;50.884;13.668;2023-04-07T04:41:16;8.13;;;4.43;;
24961;SDS011;12992;50.884;13.668;2023-04-07T04:43:42;7.55;;;4.72;;
24961;SDS011;12992;50.884;13.668;2023-04-07T04:46:09;9.05;;;4.28;;
24961;SDS011;12992;50.884;13.668;2023-04-07T04:48:39;7.93;;;3.85;;
24961;SDS011;12992;50.884;13.668;2023-04-07T04:51:06;6.72;;;4.32;;
24961;SDS011;12992;50.884;13.668;2023-04-07T04:53:31;6.63;;;4.20;;
24961;SDS011;12992;50.884;13.668;2023-04-07T04:55:59;6.88;;;3.95;;
24961;SDS011;12992;50.884;13.668;2023-04-07T04:58:38;6.88;;;4.32;;
24961;SDS011;12992;50.884;13.668;2023-04-07T05:01:05;7.43;;;4.10;;
24961;SDS011;12992;50.884;13.668;2023-04-07T05:03:46;6.20;;;4.13;;
24961;SDS011;12992;50.884;13.668;2023-04-07T05:06:17;6.45;;;3.88;;
24961;SDS011;12992;50.884;13.668;2023-04-07T05:08:44;9.10;;;4.72;;
24961;SDS011;12992;50.884;13.668;2023-04-07T05:11:10;7.47;;;4.30;;
24961;SDS011;12992;50.884;13.668;2023-04-07T05:13:36;7.95;;;4.40;;
24961;SDS011;12992;50.884;13.668;2023-04-07T05:16:03;8.07;;;4.85;;
24961;SDS011;12992;50.884;13.668;2023-04-07T05:18:29;7.18;;;4.25;;
24961;SDS011;12992;50.884;13.668;2023-04-07T05:20:56;14.15;;;7.47;;
24961;SDS011;12992;50.884;13.668;2023-04-07T05:23:23;9.38;;;5.05;;
24961;SDS011;12992;50.884;13.668;2023-04-07T05:25:50;10.90;;;6.82;;
24961;SDS011;12992;50.884;13.668;2023-04-07T05:28:16;45.13;;;23.02;;
24961;SDS011;12992;50.884;13.668;2023-04-07T05:30:42;12.60;;;7.50;;
24961;SDS011;12992;50.884;13.668;2023-04-07T05:33:07;7.57;;;5.10;;
24961;SDS011;12992;50.884;13.668;2023-04-07T05:35:46;7.40;;;4.85;;
24961;SDS011;12992;50.884;13.668;2023-04-07T05:38:11;7.22;;;4.70;;
24961;SDS011;12992;50.884;13.668;2023-04-07T05:40:39;8.63;;;4.78;;
24961;SDS011;12992;50.884;13.668;2023-04-07T05:43:07;9.15;;;5.80;;
24961;SDS011;12992;50.884;13.668;2023-04-07T05:45:33;8.02;;;5.10;;
24961;SDS011;12992;50.884;13.668;2023-04-07T05:47:59;8.27;;;5.22;;
24961;SDS011;12992;50.884;13.668;2023-04-07T05:50:33;21.92;;;13.70;;
24961;SDS011;12992;50.884;13.668;2023-04-07T05:53:02;10.60;;;5.78;;
24961;SDS011;12992;50.884;13.668;2023-04-07T05:55:27;6.10;;;4.43;;
24961;SDS011;12992;50.884;13.668;2023-04-07T05:57:53;8.77;;;4.32;;
24961;SDS011;12992;50.884;13.668;2023-04-07T06:00:21;15.57;;;9.93;;
24961;SDS011;12992;50.884;13.668;2023-04-07T06:02:57;9.45;;;5.53;;
24961;SDS011;12992;50.884;13.668;2023-04-07T06:05:23;11.02;;;6.97;;
24961;SDS011;12992;50.884;13.668;2023-04-07T06:07:51;23.05;;;11.20;;
24961;SDS011;12992;50.884;13.668;2023-04-07T06:10:18;76.63;;;34.03;;
24961;SDS011;12992;50.884;13.668;2023-04-07T06:12:44;52.95;;;26.30;;
24961;SDS011;12992;50.884;13.668;2023-04-07T06:15:09;66.75;;;31.45;;
24961;SDS011;12992;50.884;13.668;2023-04-07T06:17:36;43.38;;;22.52;;
24961;SDS011;12992;50.884;13.668;2023-04-07T06:20:01;27.08;;;14.93;;
24961;SDS011;12992;50.884;13.668;2023-04-07T06:22:31;26.08;;;12.75;;
24961;SDS011;12992;50.884;13.668;2023-04-07T06:24:56;23.85;;;11.77;;
24961;SDS011;12992;50.884;13.668;2023-04-07T06:27:22;22.65;;;13.48;;
24961;SDS011;12992;50.884;13.668;2023-04-07T06:29:49;13.98;;;9.10;;
24961;SDS011;12992;50.884;13.668;2023-04-07T06:32:14;17.00;;;10.65;;
24961;SDS011;12992;50.884;13.668;2023-04-07T06:34:39;10.05;;;6.88;;
24961;SDS011;12992;50.884;13.668;2023-04-07T06:37:05;10.02;;;6.43;;
24961;SDS011;12992;50.884;13.668;2023-04-07T06:39:31;10.23;;;6.35;;
24961;SDS011;12992;50.884;13.668;2023-04-07T06:41:56;10.60;;;5.00;;
24961;SDS011;12992;50.884;13.668;2023-04-07T06:44:22;6.53;;;4.53;;
24961;SDS011;12992;50.884;13.668;2023-04-07T06:46:47;8.30;;;4.45;;
24961;SDS011;12992;50.884;13.668;2023-04-07T06:49:17;9.00;;;4.78;;
24961;SDS011;12992;50.884;13.668;2023-04-07T06:51:42;11.38;;;4.85;;
24961;SDS011;12992;50.884;13.668;2023-04-07T06:54:07;12.65;;;6.93;;
24961;SDS011;12992;50.884;13.668;2023-04-07T06:56:36;9.43;;;5.28;;
24961;SDS011;12992;50.884;13.668;2023-04-07T06:59:02;9.45;;;5.55;;
24961;SDS011;12992;50.884;13.668;2023-04-07T07:01:27;8.55;;;4.80;;
24961;SDS011;12992;50.884;13.668;2023-04-07T07:03:53;9.18;;;5.45;;
24961;SDS011;12992;50.884;13.668;2023-04-07T07:06:18;9.45;;;5.95;;
24961;SDS011;12992;50.884;13.668;2023-04-07T07:08:43;12.13;;;5.97;;
24961;SDS011;12992;50.884;13.668;2023-04-07T07:11:09;10.85;;;6.07;;
24961;SDS011;12992;50.884;13.668;2023-04-07T07:13:34;15.40;;;8.25;;
24961;SDS011;12992;50.884;13.668;2023-04-07T07:15:59;8.40;;;5.85;;
24961;SDS011;12992;50.884;13.668;2023-04-07T07:18:25;8.45;;;5.40;;
24961;SDS011;12992;50.884;13.668;2023-04-07T07:20:50;11.98;;;5.72;;
24961;SDS011;12992;50.884;13.668;2023-04-07T07:23:15;11.20;;;5.25;;
24961;SDS011;12992;50.884;13.668;2023-04-07T07:25:41;12.98;;;7.00;;
24961;SDS011;12992;50.884;13.668;2023-04-07T07:28:06;8.65;;;5.82;;
24961;SDS011;12992;50.884;13.668;2023-04-07T07:30:33;7.95;;;5.20;;
24961;SDS011;12992;50.884;13.668;2023-04-07T07:32:58;8.23;;;5.47;;
24961;SDS011;12992;50.884;13.668;2023-04-07T07:35:24;12.32;;;5.97;;
24961;SDS011;12992;50.884;13.668;2023-04-07T07:37:50;9.48;;;5.38;;
24961;SDS011;12992;50.884;13.668;2023-04-07T07:40:16;10.02;;;6.05;;
24961;SDS011;12992;50.884;13.668;2023-04-07T07:42:42;9.15;;;5.57;;
24961;SDS011;12992;50.884;13.668;2023-04-07T07:45:07;6.95;;;5.22;;
24961;SDS011;12992;50.884;13.668;2023-04-07T07:47:33;8.02;;;5.28;;
24961;SDS011;12992;50.884;13.668;2023-04-07T07:50:01;10.15;;;5.40;;
24961;SDS011;12992;50.884;13.668;2023-04-07T07:52:27;9.27;;;5.63;;
24961;SDS011;12992;50.884;13.668;2023-04-07T07:54:52;10.52;;;5.90;;
24961;SDS011;12992;50.884;13.668;2023-04-07T07:57:17;8.93;;;6.22;;
24961;SDS011;12992;50.884;13.668;2023-04-07T07:59:43;10.07;;;6.10;;
24961;SDS011;12992;50.884;13.668;2023-04-07T08:02:08;10.82;;;6.45;;
24961;SDS011;12992;50.884;13.668;2023-04-07T08:04:34;12.35;;;6.32;;
24961;SDS011;12992;50.884;13.668;2023-04-07T08:07:00;10.43;;;6.28;;
24961;SDS011;12992;50.884;13.668;2023-04-07T08:09:25;10.68;;;6.10;;
24961;SDS011;12992;50.884;13.668;2023-04-07T08:11:51;10.98;;;6.47;;
24961;SDS011;12992;50.884;13.668;2023-04-07T08:14:16;10.35;;;6.00;;
24961;SDS011;12992;50.884;13.668;2023-04-07T08:16:42;12.95;;;6.05;;
24961;SDS011;12992;50.884;13.668;2023-04-07T08:19:08;9.88;;;6.10;;
24961;SDS011;12992;50.884;13.668;2023-04-07T08:21:34;8.90;;;5.75;;
24961;SDS011;12992;50.884;13.668;2023-04-07T08:24:00;9.43;;;5.85;;
24961;SDS011;12992;50.884;13.668;2023-04-07T08:26:25;11.65;;;6.55;;
24961;SDS011;12992;50.884;13.668;2023-04-07T08:28:51;11.57;;;6.93;;
24961;SDS011;12992;50.884;13.668;2023-04-07T08:31:16;8.55;;;5.47;;
24961;SDS011;12992;50.884;13.668;2023-04-07T08:33:42;7.88;;;4.93;;
24961;SDS011;12992;50.884;13.668;2023-04-07T08:36:07;7.93;;;5.00;;
24961;SDS011;12992;50.884;13.668;2023-04-07T08:38:33;9.23;;;4.82;;
24961;SDS011;12992;50.884;13.668;2023-04-07T08:41:07;9.43;;;5.55;;
24961;SDS011;12992;50.884;13.668;2023-04-07T08:43:36;7.85;;;5.32;;
24961;SDS011;12992;50.884;13.668;2023-04-07T08:46:03;7.82;;;4.70;;
24961;SDS011;12992;50.884;13.668;2023-04-07T08:48:29;8.43;;;5.85;;
24961;SDS011;12992;50.884;13.668;2023-04-07T08:50:59;9.70;;;5.65;;
24961;SDS011;12992;50.884;13.668;2023-04-07T08:53:32;7.70;;;5.22;;
24961;SDS011;12992;50.884;13.668;2023-04-07T08:56:16;11.05;;;5.80;;
24961;SDS011;12992;50.884;13.668;2023-04-07T08:58:42;10.80;;;5.75;;
24961;SDS011;12992;50.884;13.668;2023-04-07T09:01:09;6.93;;;5.20;;
24961;SDS011;12992;50.884;13.668;2023-04-07T09:03:35;10.50;;;5.80;;
24961;SDS011;12992;50.884;13.668;2023-04-07T09:06:01;9.65;;;5.68;;
24961;SDS011;12992;50.884;13.668;2023-04-07T09:08:27;9.00;;;5.40;;
24961;SDS011;12992;50.884;13.668;2023-04-07T09:10:53;8.82;;;5.28;;
24961;SDS011;12992;50.884;13.668;2023-04-07T09:13:20;8.95;;;5.18;;
24961;SDS011;12992;50.884;13.668;2023-04-07T09:15:45;11.15;;;5.30;;
24961;SDS011;12992;50.884;13.668;2023-04-07T09:18:11;8.43;;;5.20;;
24961;SDS011;12992;50.884;13.668;2023-04-07T09:20:54;8.55;;;5.53;;
24961;SDS011;12992;50.884;13.668;2023-04-07T09:23:28;6.75;;;4.55;;
24961;SDS011;12992;50.884;13.668;2023-04-07T09:25:55;7.38;;;4.68;;
24961;SDS011;12992;50.884;13.668;2023-04-07T09:28:23;8.65;;;5.18;;
24961;SDS011;12992;50.884;13.668;2023-04-07T09:30:52;8.65;;;5.60;;
24961;SDS011;12992;50.884;13.668;2023-04-07T09:33:25;9.07;;;5.43;;
24961;SDS011;12992;50.884;13.668;2023-04-07T09:35:51;8.98;;;5.50;;
24961;SDS011;12992;50.884;13.668;2023-04-07T09:38:17;6.93;;;5.22;;
24961;SDS011;12992;50.884;13.668;2023-04-07T09:40:42;8.73;;;4.97;;
24961;SDS011;12992;50.884;13.668;2023-04-07T09:43:13;7.82;;;5.22;;
24961;SDS011;12992;50.884;13.668;2023-04-07T09:48:27;7.40;;;4.97;;
24961;SDS011;12992;50.884;13.668;2023-04-07T09:50:51;5.57;;;4.20;;
24961;SDS011;12992;50.884;13.668;2023-04-07T09:53:42;8.27;;;5.22;;
24961;SDS011;12992;50.884;13.668;2023-04-07T09:56:13;8.02;;;4.93;;
24961;SDS011;12992;50.884;13.668;2023-04-07T09:58:40;7.53;;;5.00;;
24961;SDS011;12992;50.884;13.668;2023-04-07T10:01:07;7.70;;;4.78;;
24961;SDS011;12992;50.884;13.668;2023-04-07T10:03:37;12.65;;;5.53;;
24961;SDS011;12992;50.884;13.668;2023-04-07T10:06:03;10.02;;;5.38;;
24961;SDS011;12992;50.884;13.668;2023-04-07T10:08:31;11.75;;;5.20;;
24961;SDS011;12992;50.884;13.668;2023-04-07T10:10:58;8.80;;;4.95;;
24961;SDS011;12992;50.884;13.668;2023-04-07T10:13:25;6.70;;;4.85;;
24961;SDS011;12992;50.884;13.668;2023-04-07T10:15:52;8.73;;;5.05;;
24961;SDS011;12992;50.884;13.668;2023-04-07T10:18:18;6.65;;;5.13;;
24961;SDS011;12992;50.884;13.668;2023-04-07T10:20:45;9.55;;;5.43;;
24961;SDS011;12992;50.884;13.668;2023-04-07T10:23:28;11.50;;;6.05;;
24961;SDS011;12992;50.884;13.668;2023-04-07T10:26:04;10.45;;;6.00;;
24961;SDS011;12992;50.884;13.668;2023-04-07T10:28:31;9.55;;;5.82;;
24961;SDS011;12992;50.884;13.668;2023-04-07T10:31:01;8.40;;;5.35;;
24961;SDS011;12992;50.884;13.668;2023-04-07T10:33:44;9.10;;;5.38;;
24961;SDS011;12992;50.884;13.668;2023-04-07T10:36:11;8.48;;;5.72;;
24961;SDS011;12992;50.884;13.668;2023-04-07T10:38:36;9.63;;;6.03;;
24961;SDS011;12992;50.884;13.668;2023-04-07T10:44:02;10.80;;;5.93;;
24961;SDS011;12992;50.884;13.668;2023-04-07T10:49:09;9.38;;;5.80;;
24961;SDS011;12992;50.884;13.668;2023-04-07T10:51:36;9.43;;;5.68;;
24961;SDS011;12992;50.884;13.668;2023-04-07T10:54:14;10.45;;;5.88;;
24961;SDS011;12992;50.884;13.668;2023-04-07T10:59:35;10.05;;;6.70;;
24961;SDS011;12992;50.884;13.668;2023-04-07T11:04:39;13.68;;;7.97;;
24961;SDS011;12992;50.884;13.668;2023-04-07T11:07:06;10.88;;;7.35;;
24961;SDS011;12992;50.884;13.668;2023-04-07T11:09:32;10.73;;;6.20;;
24961;SDS011;12992;50.884;13.668;2023-04-07T11:11:57;13.75;;;6.05;;
24961;SDS011;12992;50.884;13.668;2023-04-07T11:14:26;12.70;;;7.32;;
24961;SDS011;12992;50.884;13.668;2023-04-07T11:16:52;13.43;;;5.97;;
24961;SDS011;12992;50.884;13.668;2023-04-07T11:19:18;11.65;;;7.30;;
24961;SDS011;12992;50.884;13.668;2023-04-07T11:21:43;10.02;;;6.53;;
24961;SDS011;12992;50.884;13.668;2023-04-07T11:24:09;11.68;;;6.47;;
24961;SDS011;12992;50.884;13.668;2023-04-07T11:26:38;11.95;;;6.60;;
24961;SDS011;12992;50.884;13.668;2023-04-07T11:29:04;11.88;;;7.10;;
24961;SDS011;12992;50.884;13.668;2023-04-07T11:31:30;10.20;;;6.15;;
24961;SDS011;12992;50.884;13.668;2023-04-07T11:34:00;12.02;;;7.35;;
24961;SDS011;12992;50.884;13.668;2023-04-07T11:36:30;10.80;;;6.45;;
24961;SDS011;12992;50.884;13.668;2023-04-07T11:38:57;9.82;;;6.07;;
24961;SDS011;12992;50.884;13.668;2023-04-07T11:41:23;10.38;;;6.25;;
24961;SDS011;12992;50.884;13.668;2023-04-07T11:44:06;11.50;;;6.25;;
24961;SDS011;12992;50.884;13.668;2023-04-07T11:46:36;12.20;;;6.80;;
24961;SDS011;12992;50.884;13.668;2023-04-07T11:49:15;10.73;;;6.10;;
24961;SDS011;12992;50.884;13.668;2023-04-07T11:51:44;12.63;;;6.90;;
24961;SDS011;12992;50.884;13.668;2023-04-07T11:54:10;11.07;;;6.40;;
24961;SDS011;12992;50.884;13.668;2023-04-07T11:56:43;10.45;;;6.60;;
24961;SDS011;12992;50.884;13.668;2023-04-07T11:59:17;11.13;;;6.80;;
24961;SDS011;12992;50.884;13.668;2023-04-07T12:01:49;11.18;;;6.63;;
24961;SDS011;12992;50.884;13.668;2023-04-07T12:04:16;9.82;;;6.32;;
24961;SDS011;12992;50.884;13.668;2023-04-07T12:06:43;11.02;;;6.68;;
24961;SDS011;12992;50.884;13.668;2023-04-07T12:11:52;8.18;;;5.90;;
24961;SDS011;12992;50.884;13.668;2023-04-07T12:14:17;11.07;;;6.22;;
24961;SDS011;12992;50.884;13.668;2023-04-07T12:16:42;11.35;;;6.82;;
24961;SDS011;12992;50.884;13.668;2023-04-07T12:19:09;10.60;;;6.55;;
24961;SDS011;12992;50.884;13.668;2023-04-07T12:21:34;12.98;;;6.72;;
24961;SDS011;12992;50.884;13.668;2023-04-07T12:23:59;13.45;;;6.90;;
24961;SDS011;12992;50.884;13.668;2023-04-07T12:26:25;9.60;;;5.55;;
24961;SDS011;12992;50.884;13.668;2023-04-07T12:28:50;10.27;;;6.32;;
24961;SDS011;12992;50.884;13.668;2023-04-07T12:31:15;12.25;;;7.20;;
24961;SDS011;12992;50.884;13.668;2023-04-07T12:33:41;11.35;;;6.97;;
24961;SDS011;12992;50.884;13.668;2023-04-07T12:36:06;11.20;;;6.05;;
24961;SDS011;12992;50.884;13.668;2023-04-07T12:38:32;9.35;;;5.88;;
24961;SDS011;12992;50.884;13.668;2023-04-07T12:40:57;8.85;;;5.65;;
24961;SDS011;12992;50.884;13.668;2023-04-07T12:43:30;13.23;;;6.03;;
24961;SDS011;12992;50.884;13.668;2023-04-07T12:45:56;8.25;;;5.45;;
24961;SDS011;12992;50.884;13.668;2023-04-07T12:48:21;10.65;;;5.47;;
24961;SDS011;12992;50.884;13.668;2023-04-07T12:50:47;8.55;;;5.35;;
24961;SDS011;12992;50.884;13.668;2023-04-07T12:53:13;10.35;;;5.43;;
24961;SDS011;12992;50.884;13.668;2023-04-07T12:55:38;8.60;;;5.25;;
24961;SDS011;12992;50.884;13.668;2023-04-07T12:58:04;11.45;;;7.32;;
24961;SDS011;12992;50.884;13.668;2023-04-07T13:00:29;8.23;;;5.25;;
24961;SDS011;12992;50.884;13.668;2023-04-07T13:02:55;6.32;;;4.65;;
24961;SDS011;12992;50.884;13.668;2023-04-07T13:05:21;10.25;;;5.45;;
24961;SDS011;12992;50.884;13.668;2023-04-07T13:07:46;9.45;;;6.32;;
24961;SDS011;12992;50.884;13.668;2023-04-07T13:10:11;8.32;;;5.32;;
24961;SDS011;12992;50.884;13.668;2023-04-07T13:12:37;7.70;;;4.80;;
24961;SDS011;12992;50.884;13.668;2023-04-07T13:15:04;9.13;;;4.97;;
24961;SDS011;12992;50.884;13.668;2023-04-07T13:17:30;9.38;;;5.35;;
24961;SDS011;12992;50.884;13.668;2023-04-07T13:19:55;7.78;;;4.65;;
24961;SDS011;12992;50.884;13.668;2023-04-07T13:22:21;6.82;;;4.63;;
24961;SDS011;12992;50.884;13.668;2023-04-07T13:24:46;7.10;;;4.90;;
24961;SDS011;12992;50.884;13.668;2023-04-07T13:27:12;7.70;;;4.60;;
24961;SDS011;12992;50.884;13.668;2023-04-07T13:29:37;9.20;;;5.30;;
24961;SDS011;12992;50.884;13.668;2023-04-07T13:32:09;7.60;;;5.20;;
24961;SDS011;12992;50.884;13.668;2023-04-07T13:34:37;8.50;;;5.05;;
24961;SDS011;12992;50.884;13.668;2023-04-07T13:37:02;10.27;;;5.72;;
24961;SDS011;12992;50.884;13.668;2023-04-07T13:39:29;8.07;;;4.57;;
24961;SDS011;12992;50.884;13.668;2023-04-07T13:41:54;8.70;;;5.10;;
24961;SDS011;12992;50.884;13.668;2023-04-07T13:44:20;9.68;;;5.68;;
24961;SDS011;12992;50.884;13.668;2023-04-07T13:46:46;10.40;;;5.82;;
24961;SDS011;12992;50.884;13.668;2023-04-07T13:49:11;7.80;;;5.50;;
24961;SDS011;12992;50.884;13.668;2023-04-07T13:51:36;9.38;;;5.63;;
24961;SDS011;12992;50.884;13.668;2023-04-07T13:54:02;8.70;;;5.57;;
24961;SDS011;12992;50.884;13.668;2023-04-07T13:56:27;10.48;;;5.80;;
24961;SDS011;12992;50.884;13.668;2023-04-07T13:58:53;8.05;;;5.50;;
24961;SDS011;12992;50.884;13.668;2023-04-07T14:01:18;10.25;;;5.90;;
24961;SDS011;12992;50.884;13.668;2023-04-07T14:03:44;9.07;;;5.35;;
24961;SDS011;12992;50.884;13.668;2023-04-07T14:06:10;10.48;;;5.40;;
24961;SDS011;12992;50.884;13.668;2023-04-07T14:08:35;11.55;;;5.90;;
24961;SDS011;12992;50.884;13.668;2023-04-07T14:11:01;9.93;;;6.05;;
24961;SDS011;12992;50.884;13.668;2023-04-07T14:13:26;8.95;;;5.85;;
24961;SDS011;12992;50.884;13.668;2023-04-07T14:15:51;9.95;;;5.68;;
24961;SDS011;12992;50.884;13.668;2023-04-07T14:18:17;8.02;;;5.78;;
24961;SDS011;12992;50.884;13.668;2023-04-07T14:20:43;10.40;;;6.50;;
24961;SDS011;12992;50.884;13.668;2023-04-07T14:23:08;7.55;;;5.65;;
24961;SDS011;12992;50.884;13.668;2023-04-07T14:25:33;11.02;;;6.13;;
24961;SDS011;12992;50.884;13.668;2023-04-07T14:27:59;9.45;;;6.15;;
24961;SDS011;12992;50.884;13.668;2023-04-07T14:30:24;10.65;;;6.72;;
24961;SDS011;12992;50.884;13.668;2023-04-07T14:32:50;11.45;;;7.00;;
24961;SDS011;12992;50.884;13.668;2023-04-07T14:35:15;12.02;;;7.07;;
24961;SDS011;12992;50.884;13.668;2023-04-07T14:37:40;10.02;;;6.57;;
24961;SDS011;12992;50.884;13.668;2023-04-07T14:40:06;11.05;;;6.85;;
24961;SDS011;12992;50.884;13.668;2023-04-07T14:42:32;10.20;;;6.85;;
24961;SDS011;12992;50.884;13.668;2023-04-07T14:44:58;11.02;;;6.57;;
24961;SDS011;12992;50.884;13.668;2023-04-07T14:47:24;12.48;;;6.97;;
24961;SDS011;12992;50.884;13.668;2023-04-07T14:49:49;9.65;;;6.18;;
24961;SDS011;12992;50.884;13.668;2023-04-07T14:52:15;10.40;;;7.03;;
24961;SDS011;12992;50.884;13.668;2023-04-07T14:54:40;10.10;;;6.72;;
24961;SDS011;12992;50.884;13.668;2023-04-07T14:57:06;10.30;;;6.47;;
24961;SDS011;12992;50.884;13.668;2023-04-07T14:59:31;11.35;;;6.68;;